CYYT

St. John's International Airport

St. John's, Canada
METAR CYYT 190700Z 23016G23KT 5SM BR OVC005 20/20 A2997 RMK SF8 SLP148 DENSITY ALT 1200FT
Observed Flight Rules
Jul-19 @ 07:00 UTC (25 minutes ago) Instrument Flight Rules
Wind Visibility Clouds Conditions
230° at 16 knots
 Gusting to 23 knots
5 miles
  • Overcast at 500' AGL
  • Mist
Temperatures Readings
Current 20°C / 68°F
Dewpoint 20°C / 68°F
Humidity 100%
Altimeter 29.97" Hg
Pressure 1014.8 hPa
Elevation 140
METAR CYYT 190700Z 23016G23KT 5SM BR OVC005 20/20 A2997 RMK SF8 SLP148 DENSITY ALT 1200FT
Observed Flight Rules
Jul-19 @ 07:00 UTC
(25 minutes ago)
IFR
Wind Visibility
230° at 16 knots
 Gusting to 23 knots
5 miles
Clouds
  • Overcast at 500' AGL
Conditions
  • Mist
Temperature Dewpoint
20°C / 68°F 20°C / 68°F
Humidity Altimeter Pressure
100% 29.97" Hg 1014.8 hPa